Time;durP1;ratioP1;P1;durP2;ratioP2;P2;SDS_P1;SDS_P2;PMS_P1;PMS_P2;Temp;Humidity;BMP_temperature;BMP_pressure;BME280_temperature;BME280_humidity;BME280_pressure;Samples;Min_cycle;Max_cycle;Signal;HPM_P1;HPM_P2
2024/01/02 00:01:37;;;;;;;7.38;1.92;;;6.60;99.90;;;;;;5028029;28;20025;-87
2024/01/02 00:04:03;;;;;;;10.05;1.73;;;6.60;99.90;;;;;;5017652;28;20025;-87
2024/01/02 00:06:29;;;;;;;4.57;1.25;;;6.60;99.90;;;;;;5016365;28;20040;-87
2024/01/02 00:08:54;;;;;;;7.15;1.05;;;6.60;99.90;;;;;;5029405;28;20030;-87
2024/01/02 00:11:21;;;;;;;13.25;2.15;;;6.50;99.90;;;;;;5023335;28;20043;-86
2024/01/02 00:13:47;;;;;;;6.50;1.55;;;6.60;99.90;;;;;;5025616;28;20030;-86
2024/01/02 00:16:13;;;;;;;15.07;1.67;;;6.60;99.90;;;;;;5023779;28;20017;-86
2024/01/02 00:18:39;;;;;;;4.35;1.33;;;6.60;99.90;;;;;;5027839;28;20063;-87
2024/01/02 00:21:04;;;;;;;9.63;1.52;;;6.60;99.90;;;;;;5036981;28;20018;-86
2024/01/02 00:23:31;;;;;;;9.80;1.75;;;6.60;99.90;;;;;;5042837;28;20036;-86
2024/01/02 00:25:56;;;;;;;8.90;1.40;;;6.60;99.90;;;;;;5042942;28;20045;-85
2024/01/02 00:28:22;;;;;;;10.10;1.08;;;6.60;99.90;;;;;;5031463;28;20084;-87
2024/01/02 00:30:48;;;;;;;2.53;0.68;;;6.60;99.90;;;;;;5027355;28;20037;-86
2024/01/02 00:33:14;;;;;;;11.10;1.60;;;6.60;99.90;;;;;;5027557;28;20024;-87
2024/01/02 00:35:40;;;;;;;8.20;1.50;;;6.60;99.90;;;;;;5028299;28;20091;-86
2024/01/02 00:38:09;;;;;;;4.65;1.45;;;6.60;99.90;;;;;;5025312;28;20120;-86
2024/01/02 00:40:34;;;;;;;7.20;1.10;;;6.60;99.90;;;;;;5028094;28;20053;-88
2024/01/02 00:43:00;;;;;;;10.10;2.50;;;6.60;99.90;;;;;;5028163;28;20038;-87
2024/01/02 00:45:27;;;;;;;9.45;1.20;;;6.60;99.90;;;;;;5025784;28;20025;-86
2024/01/02 00:47:53;;;;;;;7.03;1.67;;;6.60;99.90;;;;;;5025091;28;20039;-87
2024/01/02 00:50:21;;;;;;;14.55;1.55;;;6.60;99.90;;;;;;5026546;28;20108;-88
2024/01/02 00:52:47;;;;;;;4.38;1.25;;;6.60;99.90;;;;;;5039374;28;20025;-87
2024/01/02 00:55:12;;;;;;;6.93;1.25;;;6.60;99.90;;;;;;5028193;28;20447;-87
2024/01/02 00:57:38;;;;;;;7.68;2.08;;;6.60;99.90;;;;;;5028082;28;20087;-88
2024/01/02 01:00:05;;;;;;;6.50;1.55;;;6.60;99.90;;;;;;5023534;28;20033;-87
2024/01/02 01:02:31;;;;;;;8.52;1.00;;;6.60;99.90;;;;;;5023972;28;20053;-87
2024/01/02 01:04:57;;;;;;;6.95;1.50;;;6.60;99.90;;;;;;5024784;28;20021;-87
2024/01/02 01:07:23;;;;;;;6.20;1.35;;;6.70;99.90;;;;;;5033419;28;20036;-87
2024/01/02 01:09:49;;;;;;;9.48;1.70;;;6.60;99.90;;;;;;5023894;28;20062;-88
2024/01/02 01:12:15;;;;;;;11.30;1.63;;;6.60;99.90;;;;;;5014448;28;20041;-87
2024/01/02 01:14:41;;;;;;;8.98;0.95;;;6.60;99.90;;;;;;5019955;28;20033;-86
2024/01/02 01:17:07;;;;;;;7.72;1.13;;;6.60;99.90;;;;;;5019277;28;20029;-87
2024/01/02 01:19:33;;;;;;;7.63;1.30;;;6.60;99.90;;;;;;5023126;28;20116;-86
2024/01/02 01:22:00;;;;;;;7.57;1.70;;;6.70;99.90;;;;;;5038490;28;20037;-85
2024/01/02 01:24:25;;;;;;;4.57;2.08;;;6.70;99.90;;;;;;5019515;28;20025;-87
2024/01/02 01:26:52;;;;;;;5.72;2.47;;;6.70;99.90;;;;;;5021950;28;20516;-86
2024/01/02 01:29:23;;;;;;;8.90;1.08;;;6.70;99.90;;;;;;5022717;28;20021;-86
2024/01/02 01:31:49;;;;;;;11.85;1.70;;;6.70;99.90;;;;;;5020781;28;20396;-88
2024/01/02 01:34:18;;;;;;;2.33;0.73;;;6.70;99.90;;;;;;5021367;28;20026;-88
2024/01/02 01:36:44;;;;;;;3.75;0.80;;;6.70;99.90;;;;;;5022160;28;20033;-87
2024/01/02 01:39:10;;;;;;;2.60;0.88;;;6.70;99.90;;;;;;5023649;28;20060;-86
2024/01/02 01:41:35;;;;;;;7.07;0.70;;;6.70;99.90;;;;;;5021998;28;20041;-87
2024/01/02 01:44:01;;;;;;;2.70;1.33;;;6.70;99.90;;;;;;5021789;28;20496;-88
2024/01/02 01:46:40;;;;;;;6.50;1.35;;;6.80;99.90;;;;;;5027506;28;20036;-87
2024/01/02 01:49:07;;;;;;;2.22;0.70;;;6.70;99.90;;;;;;5014809;28;20482;-88
2024/01/02 01:51:34;;;;;;;2.13;0.80;;;6.70;99.90;;;;;;5014999;28;20022;-87
2024/01/02 01:54:03;;;;;;;5.57;0.85;;;6.80;99.90;;;;;;5021078;28;20032;-85
2024/01/02 01:56:30;;;;;;;7.25;0.63;;;6.80;99.90;;;;;;5021996;28;20481;-86
2024/01/02 01:58:57;;;;;;;3.65;0.52;;;6.80;99.90;;;;;;5030613;28;20026;-88
2024/01/02 02:01:25;;;;;;;6.13;0.70;;;6.80;99.90;;;;;;5015781;28;20486;-87
2024/01/02 02:03:51;;;;;;;5.45;0.60;;;6.80;99.90;;;;;;5018364;28;20100;-86
2024/01/02 02:06:17;;;;;;;3.03;0.40;;;6.80;99.90;;;;;;5011116;28;20053;-86
2024/01/02 02:08:43;;;;;;;3.75;0.68;;;6.80;99.90;;;;;;5015512;28;20052;-88
2024/01/02 02:11:11;;;;;;;3.13;0.38;;;6.80;99.90;;;;;;5018572;28;20024;-87
2024/01/02 02:13:37;;;;;;;5.07;0.57;;;6.80;99.90;;;;;;5022440;28;20029;-87
2024/01/02 02:16:03;;;;;;;0.22;0.22;;;6.80;99.90;;;;;;5021715;28;20041;-87
2024/01/02 02:18:28;;;;;;;2.47;0.50;;;6.80;99.90;;;;;;5015330;28;20038;-87
2024/01/02 02:20:55;;;;;;;2.05;1.00;;;6.80;99.90;;;;;;5012548;28;20073;-87
2024/01/02 02:23:21;;;;;;;2.33;0.50;;;6.80;99.90;;;;;;4991642;28;20049;-87
2024/01/02 02:25:47;;;;;;;3.40;0.50;;;6.80;99.90;;;;;;5026354;28;21284;-87
2024/01/02 02:28:13;;;;;;;2.83;0.40;;;6.80;99.90;;;;;;5022388;28;20029;-87
2024/01/02 02:30:39;;;;;;;2.13;0.60;;;6.90;99.90;;;;;;5015547;28;20398;-88
2024/01/02 02:33:04;;;;;;;5.30;0.45;;;6.80;99.90;;;;;;5035408;28;20200;-87
2024/01/02 02:35:30;;;;;;;3.90;0.70;;;6.80;99.90;;;;;;5018410;28;20092;-87
2024/01/02 02:37:56;;;;;;;1.80;0.35;;;6.80;99.90;;;;;;5022586;28;20025;-86
2024/01/02 02:40:23;;;;;;;1.13;0.50;;;6.80;99.90;;;;;;5022821;28;20112;-88
2024/01/02 02:42:49;;;;;;;0.98;0.52;;;6.80;99.90;;;;;;5022786;28;20067;-86
2024/01/02 02:45:14;;;;;;;1.27;0.32;;;6.80;99.90;;;;;;5040423;28;20025;-87
2024/01/02 02:47:40;;;;;;;4.72;0.38;;;6.80;99.90;;;;;;5015403;28;20035;-88
2024/01/02 02:50:07;;;;;;;1.15;0.50;;;6.80;99.90;;;;;;5016007;28;20089;-88
2024/01/02 02:52:32;;;;;;;0.50;0.20;;;6.80;99.90;;;;;;5017763;28;20032;-87
2024/01/02 02:54:59;;;;;;;1.27;0.30;;;6.80;99.90;;;;;;5022059;28;20037;-87
2024/01/02 02:57:25;;;;;;;3.83;0.52;;;6.80;99.90;;;;;;5026156;28;20143;-86
2024/01/02 02:59:51;;;;;;;0.55;0.32;;;6.80;99.90;;;;;;5018111;28;20872;-86
2024/01/02 03:02:17;;;;;;;2.10;0.20;;;6.80;99.90;;;;;;5027311;28;20029;-87
2024/01/02 03:04:44;;;;;;;4.65;0.63;;;6.80;99.90;;;;;;5025723;28;20108;-85
2024/01/02 03:07:10;;;;;;;1.15;0.90;;;6.80;99.90;;;;;;5022912;28;20025;-85
2024/01/02 03:09:37;;;;;;;1.85;0.20;;;6.80;99.90;;;;;;5029102;28;20025;-86
2024/01/02 03:12:03;;;;;;;0.85;0.32;;;6.80;99.90;;;;;;5024583;28;20045;-85
2024/01/02 03:14:29;;;;;;;4.32;0.32;;;6.70;99.90;;;;;;5021590;28;20045;-85
2024/01/02 03:16:55;;;;;;;1.70;0.38;;;6.70;99.90;;;;;;5022791;28;20033;-85
2024/01/02 03:19:20;;;;;;;4.53;0.40;;;6.70;99.90;;;;;;5017876;28;20120;-86
2024/01/02 03:21:46;;;;;;;1.23;0.45;;;6.70;99.90;;;;;;5023137;28;20025;-86
2024/01/02 03:24:12;;;;;;;1.33;0.43;;;6.70;99.90;;;;;;5023058;28;20068;-85
2024/01/02 03:26:38;;;;;;;3.10;0.35;;;6.70;99.90;;;;;;5022927;28;20031;-85
2024/01/02 03:29:04;;;;;;;0.60;0.22;;;6.70;99.90;;;;;;5024197;28;20045;-86
2024/01/02 03:31:30;;;;;;;1.75;0.40;;;6.70;99.90;;;;;;5026286;28;20025;-86
2024/01/02 03:33:56;;;;;;;2.38;0.73;;;6.70;99.90;;;;;;5023098;28;20075;-86
2024/01/02 03:36:22;;;;;;;1.42;0.50;;;6.70;99.90;;;;;;5019261;28;20028;-86
2024/01/02 03:38:49;;;;;;;1.65;0.25;;;6.70;99.90;;;;;;5022419;28;20033;-86
2024/01/02 03:41:15;;;;;;;5.93;0.43;;;6.60;99.90;;;;;;5017007;28;20028;-85
2024/01/02 03:43:41;;;;;;;0.93;0.20;;;6.70;99.90;;;;;;5023196;28;20040;-86
2024/01/02 03:46:07;;;;;;;0.30;0.20;;;6.60;99.90;;;;;;5022690;28;20029;-86
2024/01/02 03:48:33;;;;;;;0.75;0.20;;;6.60;99.90;;;;;;5021796;28;20089;-86
2024/01/02 03:51:02;;;;;;;1.45;0.30;;;6.60;99.90;;;;;;5030292;28;20036;-85
2024/01/02 03:53:28;;;;;;;0.90;0.20;;;6.60;99.90;;;;;;5020844;28;20470;-86
2024/01/02 03:55:55;;;;;;;2.00;0.32;;;6.70;99.90;;;;;;5016343;28;20385;-87
2024/01/02 03:58:21;;;;;;;0.68;0.15;;;6.70;99.90;;;;;;5018104;28;20036;-85
2024/01/02 04:00:47;;;;;;;0.57;0.20;;;6.70;99.90;;;;;;5019503;28;20034;-86
2024/01/02 04:03:13;;;;;;;2.50;0.40;;;6.70;99.90;;;;;;5038685;28;20037;-85
2024/01/02 04:05:38;;;;;;;0.40;0.22;;;6.70;99.90;;;;;;5039830;28;20041;-85
2024/01/02 04:08:05;;;;;;;3.55;0.30;;;6.70;99.90;;;;;;5017376;28;20151;-87
2024/01/02 04:10:31;;;;;;;0.13;0.13;;;6.70;99.90;;;;;;5018134;28;20021;-85
2024/01/02 04:12:57;;;;;;;0.95;0.30;;;6.70;99.90;;;;;;5020798;28;20521;-87
2024/01/02 04:15:22;;;;;;;1.13;0.38;;;6.70;99.90;;;;;;5023414;28;20241;-85
2024/01/02 04:17:48;;;;;;;0.47;0.20;;;6.70;99.90;;;;;;5021874;28;20021;-85
2024/01/02 04:20:14;;;;;;;1.98;0.20;;;6.70;99.90;;;;;;5009900;28;20120;-85
2024/01/02 04:22:40;;;;;;;0.20;0.13;;;6.70;99.90;;;;;;5023342;28;20030;-85
2024/01/02 04:25:07;;;;;;;0.45;0.28;;;6.70;99.90;;;;;;5025918;28;20048;-85
2024/01/02 04:27:33;;;;;;;1.55;0.30;;;6.80;99.90;;;;;;5020611;28;20026;-86
2024/01/02 04:29:59;;;;;;;0.52;0.32;;;6.80;99.90;;;;;;5022753;28;20029;-86
2024/01/02 04:32:25;;;;;;;0.75;0.50;;;6.80;99.90;;;;;;5023223;28;20025;-87
2024/01/02 04:34:50;;;;;;;1.00;0.38;;;6.80;99.90;;;;;;5022772;28;20189;-86
2024/01/02 04:37:16;;;;;;;1.25;0.40;;;6.80;99.90;;;;;;5019982;28;20033;-86
2024/01/02 04:39:42;;;;;;;2.30;0.13;;;6.80;99.90;;;;;;5024201;28;20079;-86
2024/01/02 04:42:08;;;;;;;1.95;0.22;;;6.80;99.90;;;;;;5022154;28;20132;-86
2024/01/02 04:44:34;;;;;;;0.47;0.20;;;6.80;99.90;;;;;;5036626;28;20022;-85
2024/01/02 04:46:59;;;;;;;0.22;0.20;;;6.80;99.90;;;;;;5022789;23;20623;-52
2024/01/02 04:49:26;;;;;;;2.10;0.20;;;6.80;99.90;;;;;;4973301;28;20126;-51
2024/01/02 04:51:51;;;;;;;1.65;0.20;;;6.80;99.90;;;;;;4969965;28;20031;-55
2024/01/02 04:54:17;;;;;;;0.45;0.20;;;6.80;99.90;;;;;;4973013;28;20030;-54
2024/01/02 04:56:43;;;;;;;0.30;0.30;;;6.80;99.90;;;;;;4970291;28;20034;-54
2024/01/02 04:59:09;;;;;;;0.30;0.30;;;6.80;99.90;;;;;;4972539;28;20495;-57
2024/01/02 05:01:35;;;;;;;0.20;0.20;;;6.90;99.90;;;;;;4975140;28;20038;-59
2024/01/02 05:04:01;;;;;;;0.90;0.22;;;6.90;99.90;;;;;;4977988;28;20030;-57
2024/01/02 05:06:26;;;;;;;2.60;0.20;;;6.90;99.90;;;;;;4975557;28;20105;-53
2024/01/02 05:08:52;;;;;;;0.28;0.20;;;7.00;99.90;;;;;;4973243;28;20059;-57
2024/01/02 05:11:17;;;;;;;0.57;0.28;;;7.00;99.90;;;;;;4973573;28;20077;-57
2024/01/02 05:13:43;;;;;;;0.10;0.10;;;6.90;99.90;;;;;;4974437;28;20118;-57
2024/01/02 05:16:09;;;;;;;0.60;0.20;;;7.00;99.90;;;;;;4972612;28;20114;-51
2024/01/02 05:18:34;;;;;;;0.65;0.20;;;7.00;99.90;;;;;;4974248;28;20485;-54
2024/01/02 05:21:00;;;;;;;0.10;0.10;;;7.00;99.90;;;;;;4974838;28;20062;-55
2024/01/02 05:23:26;;;;;;;1.77;0.20;;;7.00;99.90;;;;;;4975275;28;20054;-54
2024/01/02 05:25:52;;;;;;;0.35;0.30;;;7.00;99.90;;;;;;4978639;28;20030;-51
2024/01/02 05:28:17;;;;;;;1.17;0.20;;;7.00;99.90;;;;;;4977737;28;20636;-51
2024/01/02 05:30:43;;;;;;;0.40;0.20;;;7.00;99.90;;;;;;4977319;28;20420;-54
2024/01/02 05:33:08;;;;;;;0.52;0.17;;;7.10;99.90;;;;;;4979865;28;20061;-54
2024/01/02 05:35:34;;;;;;;0.68;0.15;;;7.10;99.90;;;;;;4979892;28;20109;-58
2024/01/02 05:38:00;;;;;;;0.30;0.30;;;7.10;99.90;;;;;;4943323;28;20058;-58
2024/01/02 05:40:26;;;;;;;0.30;0.17;;;7.10;99.90;;;;;;4959777;28;20405;-51
2024/01/02 05:42:51;;;;;;;0.22;0.10;;;7.10;99.90;;;;;;4959232;28;20046;-53
2024/01/02 05:45:17;;;;;;;0.10;0.10;;;7.10;99.90;;;;;;4967906;28;20050;-54
2024/01/02 05:47:44;;;;;;;0.25;0.20;;;7.20;99.90;;;;;;4971304;28;20121;-54
2024/01/02 05:50:10;;;;;;;0.13;0.10;;;7.20;99.90;;;;;;4969300;28;20031;-55
2024/01/02 05:52:35;;;;;;;0.10;0.10;;;7.20;99.90;;;;;;4964093;28;20038;-54
2024/01/02 05:55:01;;;;;;;0.00;0.00;;;7.20;99.90;;;;;;4962172;28;20031;-57
2024/01/02 05:57:27;;;;;;;0.00;0.00;;;7.20;99.90;;;;;;4966924;28;20037;-53
2024/01/02 05:59:52;;;;;;;0.20;0.20;;;7.20;99.90;;;;;;4963421;28;20030;-51
2024/01/02 06:02:18;;;;;;;3.03;0.32;;;7.30;99.90;;;;;;4958733;28;20031;-52
2024/01/02 06:04:43;;;;;;;0.30;0.17;;;7.30;99.90;;;;;;4970815;28;20101;-54
2024/01/02 06:07:09;;;;;;;0.50;0.30;;;7.30;99.90;;;;;;4963093;28;20061;-53
2024/01/02 06:09:35;;;;;;;0.10;0.10;;;7.30;99.90;;;;;;4962302;28;20051;-54
2024/01/02 06:12:00;;;;;;;1.88;0.20;;;7.40;99.90;;;;;;4969154;28;20077;-54
2024/01/02 06:14:26;;;;;;;0.32;0.20;;;7.40;99.90;;;;;;4969697;28;20043;-57
2024/01/02 06:16:52;;;;;;;0.38;0.20;;;7.40;99.90;;;;;;4966771;28;20027;-54
2024/01/02 06:19:18;;;;;;;1.35;0.20;;;7.50;99.90;;;;;;4955534;28;20027;-54
2024/01/02 06:21:44;;;;;;;0.32;0.20;;;7.50;99.90;;;;;;4963236;28;20031;-56
2024/01/02 06:24:10;;;;;;;0.10;0.10;;;7.50;99.90;;;;;;4964360;28;20097;-54
2024/01/02 06:26:35;;;;;;;0.98;0.03;;;7.60;99.90;;;;;;4960868;28;20038;-55
2024/01/02 06:29:01;;;;;;;0.25;0.13;;;7.60;99.90;;;;;;4964920;28;20030;-54
2024/01/02 06:31:27;;;;;;;3.55;0.90;;;7.60;99.90;;;;;;4967189;28;20023;-55
2024/01/02 06:33:52;;;;;;;2.35;1.30;;;7.60;99.90;;;;;;4972559;28;20031;-54
2024/01/02 06:36:18;;;;;;;4.20;1.30;;;7.70;99.90;;;;;;4963927;28;20038;-51
2024/01/02 06:38:44;;;;;;;2.28;1.27;;;7.70;99.90;;;;;;4969842;28;20038;-54
2024/01/02 06:41:09;;;;;;;17.17;6.60;;;7.70;99.90;;;;;;4965343;28;20049;-55
2024/01/02 06:43:35;;;;;;;18.10;8.30;;;7.70;99.90;;;;;;4968812;28;20034;-57
2024/01/02 06:46:02;;;;;;;7.93;4.07;;;7.80;99.90;;;;;;4963102;28;20524;-52
2024/01/02 06:48:28;;;;;;;2.40;1.02;;;7.80;99.90;;;;;;4969813;28;20023;-55
2024/01/02 06:50:54;;;;;;;3.13;1.88;;;7.80;99.90;;;;;;4970618;28;20034;-55
2024/01/02 06:53:20;;;;;;;5.50;3.13;;;7.90;99.90;;;;;;4964766;28;20039;-57
2024/01/02 06:55:45;;;;;;;3.78;2.05;;;7.90;99.90;;;;;;4960836;28;20043;-53
2024/01/02 06:58:11;;;;;;;2.47;1.60;;;7.90;99.90;;;;;;4960965;28;20035;-55
2024/01/02 07:00:37;;;;;;;2.10;1.23;;;7.90;99.90;;;;;;4969645;28;20070;-55
2024/01/02 07:03:03;;;;;;;1.30;0.60;;;8.00;99.90;;;;;;4967608;28;20023;-58
2024/01/02 07:05:29;;;;;;;1.35;0.80;;;8.10;99.90;;;;;;4970832;28;20425;-52
2024/01/02 07:07:54;;;;;;;0.95;0.75;;;8.20;99.90;;;;;;4960448;28;20065;-55
2024/01/02 07:10:20;;;;;;;1.48;0.70;;;8.20;99.90;;;;;;4964589;28;20418;-53
2024/01/02 07:12:46;;;;;;;0.82;0.50;;;8.30;99.90;;;;;;4968126;28;20069;-54
2024/01/02 07:15:12;;;;;;;5.68;2.80;;;8.40;99.90;;;;;;4967705;28;20384;-51
2024/01/02 07:17:38;;;;;;;1.60;0.93;;;8.40;99.90;;;;;;4971687;28;20101;-53
2024/01/02 07:20:04;;;;;;;1.92;1.17;;;8.50;99.90;;;;;;4962549;28;20493;-55
2024/01/02 07:22:29;;;;;;;1.58;0.90;;;8.60;99.90;;;;;;5003439;23;20621;-49
2024/01/02 07:24:55;;;;;;;1.15;0.60;;;8.60;99.90;;;;;;5026971;28;20021;-53
2024/01/02 07:27:22;;;;;;;22.63;9.65;;;8.60;99.90;;;;;;5024652;28;20045;-50
2024/01/02 07:29:48;;;;;;;8.07;4.00;;;8.70;99.90;;;;;;5026462;28;20104;-52
2024/01/02 07:32:14;;;;;;;10.75;5.03;;;8.70;99.90;;;;;;5023168;28;20482;-52
2024/01/02 07:34:39;;;;;;;10.88;5.00;;;8.80;99.90;;;;;;5012716;28;20092;-50
2024/01/02 07:37:05;;;;;;;8.20;4.13;;;8.80;99.90;;;;;;5011847;28;20026;-50
2024/01/02 07:39:30;;;;;;;4.63;2.70;;;8.80;99.90;;;;;;5011543;28;20399;-52
2024/01/02 07:41:57;;;;;;;1.63;0.95;;;8.90;99.90;;;;;;5011930;28;20033;-53
2024/01/02 07:44:23;;;;;;;0.30;0.30;;;8.90;99.90;;;;;;5009989;28;20021;-52
2024/01/02 07:46:48;;;;;;;0.55;0.10;;;9.00;99.90;;;;;;5010833;28;20022;-49
2024/01/02 07:49:16;;;;;;;0.70;0.30;;;9.00;99.90;;;;;;5011517;28;20026;-50
2024/01/02 07:51:42;;;;;;;0.68;0.40;;;9.00;99.90;;;;;;5010171;28;20027;-53
2024/01/02 07:54:08;;;;;;;0.47;0.43;;;9.10;99.90;;;;;;5010659;28;20101;-52
2024/01/02 07:56:33;;;;;;;1.38;0.77;;;9.10;99.90;;;;;;5010715;28;20025;-51
2024/01/02 07:58:59;;;;;;;0.40;0.30;;;9.20;99.90;;;;;;5011945;28;20036;-51
2024/01/02 08:01:25;;;;;;;0.45;0.35;;;9.20;99.90;;;;;;5009518;28;20037;-50
2024/01/02 08:03:50;;;;;;;1.05;0.40;;;9.30;99.90;;;;;;5007862;28;20030;-52
2024/01/02 08:06:16;;;;;;;0.65;0.50;;;9.30;99.90;;;;;;5010367;28;20019;-51
2024/01/02 08:08:41;;;;;;;1.15;0.63;;;9.30;99.90;;;;;;5014207;28;20381;-51
2024/01/02 08:11:08;;;;;;;1.48;0.60;;;9.40;99.90;;;;;;5004730;28;20029;-50
2024/01/02 08:13:34;;;;;;;0.45;0.30;;;9.40;99.90;;;;;;5002151;28;20030;-54
2024/01/02 08:16:03;;;;;;;0.43;0.20;;;9.40;99.90;;;;;;5008638;28;20504;-54
2024/01/02 08:18:40;;;;;;;0.73;0.60;;;9.50;99.90;;;;;;5008052;28;20037;-53
2024/01/02 08:21:07;;;;;;;3.72;2.00;;;9.50;99.90;;;;;;5007161;28;20042;-53
2024/01/02 08:23:34;;;;;;;2.15;1.50;;;9.50;99.90;;;;;;5010631;28;20460;-50
2024/01/02 08:26:01;;;;;;;1.15;0.60;;;9.50;99.90;;;;;;5009174;28;20404;-51
2024/01/02 08:28:26;;;;;;;0.38;0.38;;;9.50;99.90;;;;;;5010427;28;20049;-51
2024/01/02 08:30:52;;;;;;;0.40;0.40;;;9.60;99.90;;;;;;5013624;28;20109;-51
2024/01/02 08:33:18;;;;;;;5.05;0.40;;;9.60;99.90;;;;;;5014591;28;20498;-53
2024/01/02 08:35:44;;;;;;;26.77;11.13;;;9.70;99.90;;;;;;5015572;28;20056;-53
2024/01/02 08:38:10;;;;;;;21.80;8.60;;;9.70;99.90;;;;;;5010970;28;20558;-52
2024/01/02 08:40:35;;;;;;;14.32;6.40;;;9.70;99.90;;;;;;5010584;28;20113;-53
2024/01/02 08:43:01;;;;;;;11.05;5.40;;;9.70;99.90;;;;;;5012844;28;20026;-53
2024/01/02 08:45:27;;;;;;;6.22;3.25;;;9.70;99.90;;;;;;5010414;28;20104;-50
2024/01/02 08:47:53;;;;;;;7.35;4.63;;;9.80;99.90;;;;;;5018067;28;20453;-51
2024/01/02 08:50:18;;;;;;;6.65;3.92;;;9.80;99.90;;;;;;5011867;28;20499;-52
2024/01/02 08:52:47;;;;;;;12.80;6.60;;;9.90;99.90;;;;;;5013861;28;20040;-49
2024/01/02 08:55:14;;;;;;;8.90;4.43;;;9.90;99.90;;;;;;5011611;28;20039;-51
2024/01/02 08:57:39;;;;;;;7.85;3.50;;;9.90;99.90;;;;;;5018730;28;20072;-53
2024/01/02 09:00:07;;;;;;;7.13;3.97;;;9.90;99.90;;;;;;5013078;28;20444;-54
2024/01/02 09:02:33;;;;;;;6.20;3.75;;;10.00;99.90;;;;;;5013122;28;20053;-51
2024/01/02 09:04:59;;;;;;;6.85;3.67;;;9.90;99.90;;;;;;5017805;28;20111;-51
2024/01/02 09:07:24;;;;;;;6.05;2.30;;;10.00;99.90;;;;;;5008047;28;20057;-49
2024/01/02 09:09:50;;;;;;;2.25;1.00;;;10.00;99.90;;;;;;5013502;28;20116;-55
2024/01/02 09:12:16;;;;;;;4.20;1.88;;;10.00;99.90;;;;;;5012968;28;20438;-53
2024/01/02 09:14:41;;;;;;;4.13;1.88;;;10.10;99.90;;;;;;5012901;28;20034;-51
2024/01/02 09:17:07;;;;;;;10.13;5.45;;;10.10;99.90;;;;;;5007262;28;20543;-51
2024/01/02 09:19:32;;;;;;;4.63;2.75;;;10.10;99.90;;;;;;5011724;28;20030;-50
2024/01/02 09:21:58;;;;;;;2.22;1.40;;;10.10;99.90;;;;;;5014398;28;20053;-53
2024/01/02 09:24:24;;;;;;;2.05;1.50;;;10.10;99.90;;;;;;5018970;28;20523;-52
2024/01/02 09:26:54;;;;;;;1.80;1.25;;;10.20;99.90;;;;;;5015472;28;20030;-50
2024/01/02 09:29:21;;;;;;;2.90;1.73;;;10.20;99.90;;;;;;5013116;28;20033;-50
2024/01/02 09:31:47;;;;;;;6.10;3.47;;;10.20;99.90;;;;;;5014930;28;20045;-52
2024/01/02 09:34:13;;;;;;;1.50;0.88;;;10.30;99.90;;;;;;5009946;28;20027;-51
2024/01/02 09:36:38;;;;;;;1.98;1.10;;;10.30;99.90;;;;;;5029027;28;20072;-55
2024/01/02 09:39:04;;;;;;;9.93;4.72;;;10.30;99.90;;;;;;5010745;28;20049;-52
2024/01/02 09:41:48;;;;;;;15.63;7.93;;;10.30;99.90;;;;;;5007127;28;20177;-51
2024/01/02 09:44:41;;;;;;;5.47;2.63;;;10.20;99.90;;;;;;5012117;28;20033;-50
2024/01/02 09:47:31;;;;;;;1.67;1.25;;;10.30;99.90;;;;;;5011715;28;20029;-52
2024/01/02 09:50:26;;;;;;;0.68;0.60;;;10.30;99.90;;;;;;5014978;28;20073;-51
2024/01/02 09:53:17;;;;;;;0.40;0.40;;;10.40;99.90;;;;;;5010122;28;20026;-52
2024/01/02 09:56:10;;;;;;;1.52;1.02;;;10.40;99.90;;;;;;5010406;28;20107;-53
2024/01/02 09:58:57;;;;;;;1.77;1.15;;;10.40;99.90;;;;;;5024915;28;20037;-51
2024/01/02 10:01:35;;;;;;;1.25;0.90;;;10.50;99.90;;;;;;5008843;28;20087;-51
2024/01/02 10:04:21;;;;;;;1.73;1.23;;;10.50;99.90;;;;;;5014426;28;20037;-51
2024/01/02 10:07:10;;;;;;;3.63;1.90;;;10.60;99.90;;;;;;5011494;28;20030;-52
2024/01/02 10:09:45;;;;;;;3.10;0.50;;;10.70;99.90;;;;;;5008502;28;20428;-53
2024/01/02 10:12:14;;;;;;;0.98;0.32;;;10.70;99.90;;;;;;5024211;28;20802;-50
2024/01/02 10:15:05;;;;;;;0.90;0.50;;;10.80;99.90;;;;;;5008230;28;20600;-53
2024/01/02 10:17:58;;;;;;;0.60;0.60;;;10.80;99.90;;;;;;5015889;28;20030;-50
2024/01/02 10:20:37;;;;;;;0.38;0.38;;;10.90;99.90;;;;;;5009701;28;20045;-51
2024/01/02 10:23:15;;;;;;;0.45;0.45;;;11.00;99.90;;;;;;5010855;28;20499;-50
2024/01/02 10:25:41;;;;;;;0.32;0.30;;;11.10;99.90;;;;;;5015721;28;20026;-50
2024/01/02 10:28:28;;;;;;;0.50;0.32;;;11.10;99.90;;;;;;5012621;28;20018;-53
2024/01/02 10:31:24;;;;;;;0.63;0.38;;;11.20;99.90;;;;;;5008396;28;20022;-52
2024/01/02 10:33:56;;;;;;;1.42;0.50;;;11.20;99.90;;;;;;5010985;28;20038;-50
2024/01/02 10:36:24;;;;;;;0.45;0.40;;;11.20;99.90;;;;;;5014118;28;20029;-49
2024/01/02 10:39:20;;;;;;;1.27;0.80;;;11.20;99.90;;;;;;5012483;28;20042;-52
2024/01/02 10:42:09;;;;;;;0.65;0.40;;;11.30;99.90;;;;;;5010952;28;20500;-53
2024/01/02 10:44:50;;;;;;;0.20;0.20;;;11.20;99.90;;;;;;5010915;28;20038;-52
2024/01/02 10:48:09;;;;;;;4.78;2.47;;;11.20;99.90;;;;;;5009144;28;20459;-53
2024/01/02 10:50:52;;;;;;;2.47;1.50;;;11.20;99.90;;;;;;4947057;29;20031;-52
2024/01/02 10:53:36;;;;;;;2.07;0.93;;;11.20;99.90;;;;;;4948034;28;20082;-49
2024/01/02 10:56:15;;;;;;;1.20;0.73;;;11.20;99.90;;;;;;4993046;28;20033;-49
2024/01/02 10:58:53;;;;;;;3.83;0.70;;;11.10;99.90;;;;;;5010737;28;20028;-50
2024/01/02 11:01:19;;;;;;;1.77;1.25;;;11.10;99.90;;;;;;5026810;28;20053;-51
2024/01/02 11:03:59;;;;;;;1.00;0.60;;;11.00;99.90;;;;;;5013945;28;20037;-50
2024/01/02 11:06:42;;;;;;;3.00;1.60;;;11.00;99.90;;;;;;5010728;28;20509;-54
2024/01/02 11:09:21;;;;;;;6.88;3.67;;;11.00;99.90;;;;;;5010302;28;20479;-53
2024/01/02 11:11:50;;;;;;;11.73;5.53;;;11.00;99.90;;;;;;5010355;28;20022;-50
2024/01/02 11:14:18;;;;;;;6.70;3.13;;;10.90;99.90;;;;;;5010925;28;20022;-53
2024/01/02 11:16:47;;;;;;;0.98;0.65;;;10.90;99.90;;;;;;5016572;28;20026;-50
2024/01/02 11:19:15;;;;;;;8.02;1.70;;;10.80;99.90;;;;;;5015017;28;20030;-52
2024/01/02 11:21:54;;;;;;;2.67;1.63;;;10.80;99.90;;;;;;5013003;28;20030;-51
2024/01/02 11:24:25;;;;;;;2.70;1.63;;;10.70;99.90;;;;;;5010709;28;20033;-50
2024/01/02 11:26:53;;;;;;;5.10;1.90;;;10.60;99.90;;;;;;5010074;28;20032;-52
2024/01/02 11:29:24;;;;;;;6.85;3.75;;;10.50;99.90;;;;;;5011454;28;20050;-52
2024/01/02 11:31:52;;;;;;;3.97;2.35;;;10.40;99.90;;;;;;5008896;28;20110;-53
2024/01/02 11:35:13;;;;;;;1.92;1.02;;;10.30;99.90;;;;;;5010621;28;20032;-52
2024/01/02 11:37:45;;;;;;;6.13;2.75;;;10.30;99.90;;;;;;4967770;28;20027;-51
2024/01/02 11:40:32;;;;;;;2.83;1.45;;;10.20;99.90;;;;;;4968218;28;20110;-51
2024/01/02 11:43:17;;;;;;;2.60;1.30;;;10.10;99.90;;;;;;4995790;28;20053;-54
2024/01/02 11:45:47;;;;;;;2.85;1.48;;;10.10;99.90;;;;;;5006490;28;20065;-53
2024/01/02 11:48:32;;;;;;;0.50;0.28;;;10.00;99.90;;;;;;5011013;28;20068;-53
2024/01/02 11:51:05;;;;;;;0.70;0.55;;;10.00;99.90;;;;;;5013267;28;20033;-53
2024/01/02 11:53:49;;;;;;;3.50;1.65;;;10.00;99.90;;;;;;5010808;28;20036;-51
2024/01/02 11:56:17;;;;;;;1.33;0.90;;;9.90;99.90;;;;;;5008699;28;20033;-51
2024/01/02 11:59:05;;;;;;;2.22;1.30;;;9.90;99.90;;;;;;5011725;28;20034;-51
2024/01/02 12:01:37;;;;;;;7.28;3.30;;;9.90;99.90;;;;;;5010331;28;20073;-51
2024/01/02 12:04:33;;;;;;;9.48;3.83;;;9.80;99.90;;;;;;5009292;28;20026;-49
2024/01/02 12:07:18;;;;;;;4.57;2.20;;;9.70;99.90;;;;;;5016492;28;20031;-51
2024/01/02 12:09:46;;;;;;;1.50;0.98;;;9.80;99.90;;;;;;5008572;28;20030;-50
2024/01/02 12:12:53;;;;;;;2.00;1.45;;;9.70;99.90;;;;;;5012681;28;20034;-52
2024/01/02 12:15:45;;;;;;;4.13;1.75;;;9.70;99.90;;;;;;5000714;28;20034;-51
2024/01/02 12:18:12;;;;;;;1.65;0.90;;;9.70;99.90;;;;;;5012943;28;20026;-54
2024/01/02 12:20:48;;;;;;;1.15;0.60;;;9.60;99.90;;;;;;5009334;28;20595;-51
2024/01/02 12:23:14;;;;;;;1.55;1.02;;;9.60;99.90;;;;;;5010346;28;20030;-53
2024/01/02 12:25:46;;;;;;;6.22;2.92;;;9.60;99.90;;;;;;5009935;28;20084;-52
2024/01/02 12:28:12;;;;;;;3.60;1.98;;;9.60;99.90;;;;;;5010440;28;20042;-50
2024/01/02 12:31:06;;;;;;;2.42;0.90;;;9.60;99.90;;;;;;5010805;28;20026;-50
2024/01/02 12:33:34;;;;;;;3.97;0.90;;;9.50;99.90;;;;;;5010547;28;20044;-49
2024/01/02 12:36:17;;;;;;;2.00;1.10;;;9.50;99.90;;;;;;5013089;28;20042;-52
2024/01/02 12:38:48;;;;;;;1.52;1.00;;;9.40;99.90;;;;;;5006605;28;20038;-55
2024/01/02 12:41:19;;;;;;;1.35;0.50;;;9.50;99.90;;;;;;5011445;28;20030;-52
2024/01/02 12:43:52;;;;;;;0.20;0.20;;;9.50;99.90;;;;;;5009764;28;20474;-51
2024/01/02 12:46:25;;;;;;;0.37;0.27;;;9.50;99.90;;;;;;5008218;28;20427;-50
2024/01/02 12:49:11;;;;;;;;;;;9.40;99.90;;;;;;5020282;28;20022;-50
2024/01/02 12:51:38;;;;;;;0.38;0.35;;;9.40;99.90;;;;;;5007212;28;19937;-53
2024/01/02 12:54:05;;;;;;;3.13;1.58;;;9.30;99.90;;;;;;5011685;28;20029;-53
2024/01/02 12:56:34;;;;;;;1.27;0.70;;;9.30;99.90;;;;;;5010454;28;20038;-51
2024/01/02 12:59:04;;;;;;;5.25;2.10;;;9.30;99.90;;;;;;5012098;28;20037;-51
2024/01/02 13:01:30;;;;;;;2.15;1.13;;;9.30;99.90;;;;;;5009224;28;20025;-51
2024/01/02 13:03:56;;;;;;;4.78;1.40;;;9.30;99.90;;;;;;5009090;28;20030;-51
2024/01/02 13:06:22;;;;;;;2.63;1.30;;;9.30;99.90;;;;;;5014995;28;20053;-51